Time;durP1;ratioP1;P1;durP2;ratioP2;P2;SDS_P1;SDS_P2;PMS_P1;PMS_P2;Temp;Humidity;BMP_temperature;BMP_pressure;BME280_temperature;BME280_humidity;BME280_pressure;Samples;Min_cycle;Max_cycle;Signal;HPM_P1;HPM_P2
2023/05/10 00:02:09;;;;;;;2.20;2.00;;;20.10;66.20;;;;;;5007671;28;21051;-84
2023/05/10 00:04:37;;;;;;;4.23;2.93;;;20.10;66.60;;;;;;5046189;28;21199;-81
2023/05/10 00:07:04;;;;;;;2.10;2.00;;;20.10;66.50;;;;;;5015807;28;20461;-82
2023/05/10 00:09:32;;;;;;;2.50;2.27;;;20.10;66.40;;;;;;4994844;28;20539;-83
2023/05/10 00:11:59;;;;;;;3.20;1.87;;;20.20;66.40;;;;;;5017283;28;20445;-83
2023/05/10 00:14:26;;;;;;;1.70;1.60;;;20.10;66.00;;;;;;5030831;28;20515;-85
2023/05/10 00:16:53;;;;;;;2.57;2.10;;;20.20;66.00;;;;;;5016343;28;20465;-83
2023/05/10 00:19:20;;;;;;;2.30;2.10;;;20.30;65.70;;;;;;5002309;28;20460;-83
2023/05/10 00:21:47;;;;;;;2.53;2.33;;;20.50;65.40;;;;;;5015362;28;20456;-81
2023/05/10 00:24:14;;;;;;;2.17;1.97;;;20.60;64.80;;;;;;5001921;28;20458;-84
2023/05/10 00:26:43;;;;;;;1.90;1.80;;;20.60;64.40;;;;;;4995411;28;20449;-83
2023/05/10 00:29:10;;;;;;;2.67;2.13;;;20.50;64.60;;;;;;5006298;28;21160;-83
2023/05/10 00:31:37;;;;;;;2.17;1.97;;;20.40;64.60;;;;;;5029450;28;20444;-85
2023/05/10 00:34:03;;;;;;;4.63;2.40;;;20.30;65.20;;;;;;5001612;28;20944;-84
2023/05/10 00:36:31;;;;;;;3.10;2.10;;;20.40;65.50;;;;;;5038293;28;20551;-80
2023/05/10 00:38:58;;;;;;;3.40;2.50;;;20.20;65.40;;;;;;4996647;28;20469;-84
2023/05/10 00:41:24;;;;;;;2.10;2.00;;;20.40;65.50;;;;;;5023181;28;20458;-82
2023/05/10 00:43:53;;;;;;;7.70;2.27;;;20.60;64.60;;;;;;5022833;28;20449;-84
2023/05/10 00:46:20;;;;;;;2.90;2.70;;;20.60;64.90;;;;;;5033007;28;20559;-82
2023/05/10 00:48:47;;;;;;;2.70;2.03;;;20.70;64.70;;;;;;5030786;28;20480;-84
2023/05/10 00:51:14;;;;;;;2.90;1.80;;;20.60;64.20;;;;;;5034303;28;20602;-84
2023/05/10 00:53:41;;;;;;;5.83;2.40;;;20.50;64.90;;;;;;5014943;28;20981;-82
2023/05/10 00:56:09;;;;;;;3.83;2.27;;;20.50;64.40;;;;;;5013943;28;20533;-84
2023/05/10 00:58:36;;;;;;;3.10;1.90;;;20.30;65.00;;;;;;5028356;28;20500;-83
2023/05/10 01:01:05;;;;;;;2.43;2.23;;;20.10;65.90;;;;;;4999683;28;20527;-82
2023/05/10 01:03:33;;;;;;;2.27;2.07;;;19.80;67.30;;;;;;5028265;28;20464;-82
2023/05/10 01:06:00;;;;;;;1.70;1.60;;;19.60;67.70;;;;;;5013601;28;20449;-83
2023/05/10 01:08:27;;;;;;;1.80;1.57;;;19.30;68.60;;;;;;5016001;28;20485;-83
2023/05/10 01:10:55;;;;;;;1.77;1.40;;;18.90;68.80;;;;;;5015301;28;20459;-82
2023/05/10 01:13:33;;;;;;;1.73;1.63;;;18.50;69.90;;;;;;5038632;28;20485;-83
2023/05/10 01:16:01;;;;;;;1.80;1.70;;;18.50;70.90;;;;;;5010362;28;20455;-83
2023/05/10 01:18:31;;;;;;;1.67;1.57;;;18.60;71.00;;;;;;5048158;28;20464;-84
2023/05/10 01:21:12;;;;;;;1.70;1.60;;;18.60;71.20;;;;;;5023434;28;20460;-84
2023/05/10 01:24:15;;;;;;;1.90;1.60;;;18.50;71.50;;;;;;4999808;28;20510;-83
2023/05/10 01:27:13;;;;;;;1.57;1.47;;;18.70;71.60;;;;;;4981081;28;20455;-83
2023/05/10 01:30:02;;;;;;;1.93;1.33;;;18.80;69.70;;;;;;5042666;28;20485;-82
2023/05/10 01:32:37;;;;;;;1.47;1.37;;;18.80;70.00;;;;;;5054272;28;20576;-81
2023/05/10 01:35:08;;;;;;;1.40;1.30;;;19.00;69.50;;;;;;5014006;28;20452;-83
2023/05/10 01:37:43;;;;;;;1.27;0.93;;;19.00;69.50;;;;;;5019962;28;20552;-84
2023/05/10 01:40:20;;;;;;;3.00;1.00;;;18.80;67.90;;;;;;5007581;28;20559;-83
2023/05/10 01:42:51;;;;;;;1.87;1.27;;;18.80;69.10;;;;;;5043845;28;20437;-83
2023/05/10 01:45:27;;;;;;;1.13;1.00;;;18.80;68.70;;;;;;5025269;28;20487;-82
2023/05/10 01:48:05;;;;;;;1.20;1.10;;;18.70;67.50;;;;;;5007770;28;20488;-84
2023/05/10 01:50:35;;;;;;;5.17;1.10;;;18.50;68.60;;;;;;5034696;28;20445;-82
2023/05/10 01:53:05;;;;;;;1.30;1.00;;;18.70;69.10;;;;;;5037929;28;20490;-84
2023/05/10 01:55:36;;;;;;;1.10;1.00;;;18.70;68.00;;;;;;5011556;28;20832;-84
2023/05/10 01:58:08;;;;;;;0.90;0.90;;;18.70;67.90;;;;;;5022278;28;20477;-81
2023/05/10 02:00:37;;;;;;;1.10;0.90;;;18.60;67.60;;;;;;5022142;28;20461;-82
2023/05/10 02:03:09;;;;;;;2.93;0.90;;;18.50;68.20;;;;;;5011185;28;20444;-81
2023/05/10 02:05:39;;;;;;;0.97;0.90;;;18.50;67.80;;;;;;5003114;28;20448;-82
2023/05/10 02:08:08;;;;;;;0.90;0.80;;;18.50;67.60;;;;;;5036319;28;21021;-83
2023/05/10 02:10:39;;;;;;;2.33;0.93;;;18.40;67.30;;;;;;5010820;28;20453;-83
2023/05/10 02:13:08;;;;;;;2.17;0.87;;;18.30;67.50;;;;;;5014005;28;20453;-84
2023/05/10 02:15:35;;;;;;;1.23;1.10;;;18.30;67.70;;;;;;5037487;28;20511;-81
2023/05/10 02:18:05;;;;;;;0.80;0.77;;;18.10;68.00;;;;;;5030485;28;20448;-83
2023/05/10 02:20:35;;;;;;;7.43;1.20;;;18.00;68.90;;;;;;5029683;28;20454;-84
2023/05/10 02:23:04;;;;;;;1.13;1.00;;;18.00;68.70;;;;;;5032618;28;20457;-83
2023/05/10 02:25:33;;;;;;;3.10;1.23;;;18.00;68.60;;;;;;5028897;28;20604;-83
2023/05/10 02:28:04;;;;;;;2.50;0.90;;;18.00;68.60;;;;;;5012966;28;20459;-83
2023/05/10 02:30:33;;;;;;;1.00;0.90;;;17.80;67.90;;;;;;5036686;28;20571;-83
2023/05/10 02:33:01;;;;;;;0.90;0.83;;;17.70;69.20;;;;;;5057247;28;20473;-83
2023/05/10 02:35:34;;;;;;;1.13;1.03;;;17.80;69.30;;;;;;5023967;28;20452;-83
2023/05/10 02:38:03;;;;;;;1.00;0.90;;;18.00;68.80;;;;;;5021715;28;20481;-84
2023/05/10 02:40:32;;;;;;;0.80;0.80;;;18.20;68.20;;;;;;5052160;28;20514;-82
2023/05/10 02:43:02;;;;;;;2.20;0.90;;;18.30;68.00;;;;;;5051540;28;20555;-83
2023/05/10 02:45:32;;;;;;;0.80;0.73;;;18.40;67.60;;;;;;5000737;28;20544;-84
2023/05/10 02:48:00;;;;;;;0.80;0.70;;;18.40;67.30;;;;;;5019347;28;20863;-84
2023/05/10 02:50:28;;;;;;;0.97;0.80;;;18.40;67.10;;;;;;5043046;28;20449;-81
2023/05/10 02:53:02;;;;;;;0.83;0.80;;;18.50;66.70;;;;;;5033793;28;20445;-83
2023/05/10 02:55:37;;;;;;;1.00;0.90;;;18.40;66.30;;;;;;5032293;28;20449;-82
2023/05/10 02:58:04;;;;;;;1.00;0.90;;;18.40;66.70;;;;;;5027147;28;20477;-81
2023/05/10 03:00:32;;;;;;;1.87;1.00;;;18.50;65.80;;;;;;5009420;28;20482;-84
2023/05/10 03:03:01;;;;;;;1.03;0.87;;;18.40;66.80;;;;;;5037705;28;20532;-81
2023/05/10 03:05:29;;;;;;;3.17;0.90;;;18.20;67.20;;;;;;5033819;28;20545;-84
2023/05/10 03:08:03;;;;;;;0.80;0.73;;;18.20;67.10;;;;;;5019100;28;20463;-83
2023/05/10 03:10:33;;;;;;;1.00;0.90;;;18.10;66.90;;;;;;5017320;28;20684;-84
2023/05/10 03:13:11;;;;;;;0.80;0.80;;;18.10;67.20;;;;;;5018954;28;21015;-84
2023/05/10 03:15:48;;;;;;;0.90;0.80;;;18.30;67.00;;;;;;5031275;28;20445;-84
2023/05/10 03:18:19;;;;;;;0.90;0.80;;;18.20;66.30;;;;;;5033161;28;20465;-83
2023/05/10 03:20:49;;;;;;;1.00;0.90;;;18.20;66.70;;;;;;5031849;28;20816;-82
2023/05/10 03:23:24;;;;;;;0.90;0.80;;;18.20;66.80;;;;;;5005027;28;20453;-84
2023/05/10 03:25:51;;;;;;;1.00;0.90;;;18.30;66.40;;;;;;5006948;28;20448;-82
2023/05/10 03:28:19;;;;;;;1.00;0.90;;;18.40;66.60;;;;;;5022333;28;20867;-84
2023/05/10 03:30:47;;;;;;;2.50;1.10;;;18.30;66.50;;;;;;5019747;28;20440;-80
2023/05/10 03:33:15;;;;;;;1.13;1.03;;;18.10;66.40;;;;;;5034482;28;20531;-84
2023/05/10 03:35:45;;;;;;;1.70;1.10;;;18.10;67.00;;;;;;5036539;28;20449;-82
2023/05/10 03:38:12;;;;;;;1.47;1.30;;;18.10;66.90;;;;;;5024323;28;20479;-83
2023/05/10 03:40:41;;;;;;;1.73;1.00;;;18.00;67.30;;;;;;5040061;28;20964;-83
2023/05/10 03:43:08;;;;;;;1.03;0.93;;;17.70;67.30;;;;;;5017940;28;20552;-83
2023/05/10 03:45:36;;;;;;;1.17;1.00;;;17.60;67.40;;;;;;5025224;28;20454;-80
2023/05/10 03:48:04;;;;;;;1.03;0.93;;;17.70;68.10;;;;;;5034572;28;20917;-83
2023/05/10 03:50:31;;;;;;;2.10;1.20;;;17.70;68.00;;;;;;5024328;28;20464;-81
2023/05/10 03:52:58;;;;;;;1.13;1.03;;;17.70;68.10;;;;;;5026123;28;20986;-84
2023/05/10 03:55:25;;;;;;;1.10;1.00;;;17.70;67.70;;;;;;5001818;28;20993;-83
2023/05/10 03:57:53;;;;;;;1.10;1.00;;;17.80;67.40;;;;;;5024451;28;20487;-84
2023/05/10 04:00:22;;;;;;;1.00;0.90;;;17.90;67.90;;;;;;5032048;28;20453;-83
2023/05/10 04:02:52;;;;;;;1.63;1.03;;;17.90;66.70;;;;;;5034379;28;20441;-84
2023/05/10 04:05:20;;;;;;;1.17;1.07;;;17.80;67.60;;;;;;5010213;28;20531;-81
2023/05/10 04:07:49;;;;;;;1.17;1.07;;;17.90;67.20;;;;;;4996322;28;20942;-81
2023/05/10 04:10:17;;;;;;;2.83;1.10;;;18.10;66.90;;;;;;5033476;28;20490;-83
2023/05/10 04:12:44;;;;;;;2.47;1.13;;;18.10;66.50;;;;;;5025507;28;20581;-83
2023/05/10 04:15:12;;;;;;;3.43;1.23;;;18.20;65.70;;;;;;5050778;28;20488;-83
2023/05/10 04:17:39;;;;;;;2.93;1.20;;;18.30;66.30;;;;;;5052462;28;20449;-82
2023/05/10 04:20:08;;;;;;;1.27;1.17;;;18.40;66.20;;;;;;5035928;28;20473;-81
2023/05/10 04:22:35;;;;;;;1.10;1.00;;;18.50;65.10;;;;;;5018267;28;20443;-83
2023/05/10 04:25:02;;;;;;;2.03;1.27;;;18.50;65.30;;;;;;5033784;28;20444;-81
2023/05/10 04:27:29;;;;;;;2.17;1.30;;;18.60;65.10;;;;;;5023726;28;20459;-84
2023/05/10 04:29:55;;;;;;;1.40;1.30;;;18.60;65.50;;;;;;5000604;28;20465;-82
2023/05/10 04:32:24;;;;;;;3.03;1.73;;;18.60;65.80;;;;;;5032328;28;20472;-83
2023/05/10 04:34:51;;;;;;;1.40;1.30;;;18.40;64.60;;;;;;5018173;28;20972;-82
2023/05/10 04:37:18;;;;;;;1.20;1.10;;;18.40;65.20;;;;;;5000087;28;20855;-82
2023/05/10 04:39:45;;;;;;;3.10;1.30;;;18.10;65.90;;;;;;5038719;28;20512;-82
2023/05/10 04:42:14;;;;;;;3.63;1.27;;;18.00;66.80;;;;;;5031303;28;20822;-82
2023/05/10 04:44:41;;;;;;;1.60;1.50;;;18.10;66.40;;;;;;5014433;28;20445;-82
2023/05/10 04:47:08;;;;;;;1.50;1.40;;;18.00;66.80;;;;;;5036998;28;20454;-82
2023/05/10 04:49:36;;;;;;;2.03;1.60;;;18.00;66.80;;;;;;5034279;28;20468;-83
2023/05/10 04:52:03;;;;;;;1.30;1.20;;;18.20;66.30;;;;;;5026708;28;20500;-83
2023/05/10 04:54:30;;;;;;;2.50;1.40;;;18.30;66.40;;;;;;5031836;28;21006;-85
2023/05/10 04:56:57;;;;;;;1.60;1.50;;;18.40;66.00;;;;;;5016524;28;20459;-84
2023/05/10 04:59:24;;;;;;;1.40;1.03;;;18.50;65.90;;;;;;5024167;28;20871;-83
2023/05/10 05:01:51;;;;;;;1.67;1.57;;;18.50;65.10;;;;;;5035920;28;20548;-81
2023/05/10 05:04:18;;;;;;;5.23;1.33;;;18.30;65.80;;;;;;5031779;28;20446;-83
2023/05/10 05:06:46;;;;;;;1.50;1.40;;;18.30;66.30;;;;;;5029216;28;20460;-84
2023/05/10 05:09:13;;;;;;;1.43;1.33;;;18.30;65.80;;;;;;5032313;28;20464;-82
2023/05/10 05:11:40;;;;;;;1.50;1.40;;;18.10;66.70;;;;;;5031381;28;20436;-82
2023/05/10 05:14:07;;;;;;;2.10;1.40;;;18.10;67.20;;;;;;5042272;28;20461;-83
2023/05/10 05:16:34;;;;;;;1.67;1.50;;;18.20;67.40;;;;;;5012442;28;20441;-84
2023/05/10 05:19:01;;;;;;;1.70;1.30;;;18.30;66.60;;;;;;4993160;28;20851;-85
2023/05/10 05:21:28;;;;;;;2.60;1.50;;;18.50;66.20;;;;;;5030059;28;20453;-81
2023/05/10 05:23:57;;;;;;;1.30;1.20;;;18.60;65.50;;;;;;5023186;28;21032;-82
2023/05/10 05:26:24;;;;;;;1.63;1.53;;;18.80;66.10;;;;;;5032504;28;20947;-84
2023/05/10 05:28:53;;;;;;;1.53;1.43;;;18.80;64.70;;;;;;5015916;28;20480;-83
2023/05/10 05:31:20;;;;;;;1.83;1.73;;;18.80;64.70;;;;;;5009819;28;20463;-84
2023/05/10 05:33:47;;;;;;;2.90;1.40;;;18.80;64.60;;;;;;5017765;28;21063;-83
2023/05/10 05:36:14;;;;;;;1.40;1.30;;;18.90;64.90;;;;;;5031035;28;20461;-84
2023/05/10 05:38:41;;;;;;;1.77;1.67;;;18.70;64.60;;;;;;5017005;28;21089;-83
2023/05/10 05:41:10;;;;;;;2.57;1.60;;;18.70;64.90;;;;;;5024236;28;20437;-83
2023/05/10 05:43:37;;;;;;;1.50;1.40;;;18.50;65.30;;;;;;4999089;28;20449;-81
2023/05/10 05:46:04;;;;;;;2.80;1.80;;;18.70;65.70;;;;;;5007700;28;20440;-84
2023/05/10 05:48:31;;;;;;;1.73;1.63;;;18.80;65.30;;;;;;5013208;28;20583;-83
2023/05/10 05:50:59;;;;;;;3.57;2.07;;;18.90;65.10;;;;;;5007695;28;20858;-84
2023/05/10 05:53:26;;;;;;;1.70;1.60;;;19.00;64.50;;;;;;5008681;28;20472;-84
2023/05/10 05:55:54;;;;;;;2.10;2.00;;;19.00;65.20;;;;;;5014663;28;20636;-84
2023/05/10 05:58:23;;;;;;;1.80;1.70;;;19.00;64.60;;;;;;5006955;28;20517;-83
2023/05/10 06:00:50;;;;;;;2.20;1.97;;;19.10;64.80;;;;;;5000574;28;20596;-83
2023/05/10 06:03:17;;;;;;;2.10;2.00;;;19.10;65.30;;;;;;5033477;28;20546;-83
2023/05/10 06:05:44;;;;;;;2.20;2.00;;;19.10;65.80;;;;;;5029972;28;20455;-84
2023/05/10 06:08:11;;;;;;;2.37;2.17;;;19.10;65.40;;;;;;5019896;28;20466;-82
2023/05/10 06:10:38;;;;;;;2.17;1.97;;;19.30;65.30;;;;;;5039036;28;20473;-83
2023/05/10 06:13:05;;;;;;;3.70;2.67;;;19.20;65.40;;;;;;5024100;28;20562;-83
2023/05/10 06:15:34;;;;;;;2.47;2.00;;;18.80;66.30;;;;;;5032681;28;20480;-82
2023/05/10 06:18:01;;;;;;;3.97;3.00;;;18.70;66.30;;;;;;5024251;28;20456;-85
2023/05/10 06:20:28;;;;;;;3.80;2.67;;;18.80;66.50;;;;;;5001274;28;20457;-83
2023/05/10 06:22:55;;;;;;;4.77;2.30;;;18.90;66.20;;;;;;5053688;28;20528;-83
2023/05/10 06:25:22;;;;;;;2.50;2.30;;;18.90;65.40;;;;;;5038416;28;20457;-80
2023/05/10 06:27:49;;;;;;;2.57;2.00;;;18.50;65.30;;;;;;5005442;28;20957;-84
2023/05/10 06:30:16;;;;;;;3.10;2.80;;;18.60;66.80;;;;;;5027233;28;20486;-84
2023/05/10 06:32:45;;;;;;;2.60;2.40;;;18.50;66.10;;;;;;5049398;28;20467;-84
2023/05/10 06:35:12;;;;;;;3.87;2.60;;;18.40;65.80;;;;;;5051774;28;20565;-83
2023/05/10 06:37:39;;;;;;;2.40;2.20;;;18.40;66.30;;;;;;5023109;28;20444;-81
2023/05/10 06:40:09;;;;;;;3.20;2.30;;;18.50;66.70;;;;;;5027566;28;21073;-84
2023/05/10 06:42:35;;;;;;;2.90;2.70;;;18.50;66.30;;;;;;5020375;28;20895;-83
2023/05/10 06:45:04;;;;;;;3.77;2.17;;;18.70;66.90;;;;;;5037752;28;20536;-84
2023/05/10 06:47:31;;;;;;;5.80;2.57;;;18.80;65.60;;;;;;5020719;28;20961;-83
2023/05/10 06:49:59;;;;;;;2.23;2.03;;;18.80;64.60;;;;;;5033333;28;20503;-83
2023/05/10 06:52:26;;;;;;;2.70;1.97;;;18.70;64.90;;;;;;5020912;28;20454;-83
2023/05/10 06:54:53;;;;;;;3.00;1.97;;;18.70;65.80;;;;;;5031746;28;20456;-81
2023/05/10 06:57:20;;;;;;;5.73;2.13;;;18.70;65.40;;;;;;5009450;28;21054;-83
2023/05/10 06:59:47;;;;;;;2.40;2.20;;;18.50;63.90;;;;;;5017344;28;20983;-84
2023/05/10 07:02:14;;;;;;;2.30;2.10;;;18.70;65.10;;;;;;5017554;28;20456;-84
2023/05/10 07:04:41;;;;;;;3.07;2.43;;;18.70;65.60;;;;;;5025901;28;20507;-84
2023/05/10 07:07:09;;;;;;;6.70;2.33;;;18.90;64.90;;;;;;5025504;28;20454;-84
2023/05/10 07:09:36;;;;;;;5.43;2.30;;;19.10;64.50;;;;;;5018436;28;20475;-83
2023/05/10 07:12:04;;;;;;;3.60;2.20;;;19.30;64.00;;;;;;5002635;28;20811;-84
2023/05/10 07:14:31;;;;;;;4.17;2.40;;;19.20;63.50;;;;;;5050485;28;20464;-83
2023/05/10 07:16:58;;;;;;;3.90;2.17;;;19.40;63.40;;;;;;5016191;28;20530;-82
2023/05/10 07:19:26;;;;;;;2.90;2.43;;;19.40;63.10;;;;;;5001575;28;20461;-84
2023/05/10 07:21:53;;;;;;;2.30;2.10;;;19.60;63.20;;;;;;5008006;28;20459;-82
2023/05/10 07:24:21;;;;;;;2.53;2.00;;;19.50;61.90;;;;;;5054099;28;20869;-83
2023/05/10 07:26:48;;;;;;;2.80;2.00;;;19.70;62.20;;;;;;5023614;28;20442;-83
2023/05/10 07:29:15;;;;;;;3.93;2.27;;;19.70;63.10;;;;;;5010443;28;21057;-82
2023/05/10 07:31:42;;;;;;;5.00;2.30;;;19.80;60.80;;;;;;5028427;28;20469;-83
2023/05/10 07:34:09;;;;;;;1.90;1.80;;;20.00;61.10;;;;;;5035382;28;20453;-82
2023/05/10 07:36:36;;;;;;;1.77;1.67;;;20.20;60.90;;;;;;5051541;28;20450;-84
2023/05/10 07:39:03;;;;;;;2.70;2.10;;;20.30;60.50;;;;;;4999814;28;20945;-83
2023/05/10 07:41:32;;;;;;;2.70;1.83;;;20.00;59.70;;;;;;5026220;28;20446;-82
2023/05/10 07:43:59;;;;;;;3.20;1.70;;;19.90;60.80;;;;;;5008657;28;20461;-83
2023/05/10 07:46:26;;;;;;;2.60;2.00;;;20.00;59.40;;;;;;5025997;28;20524;-84
2023/05/10 07:48:53;;;;;;;1.67;1.57;;;20.00;59.50;;;;;;5001444;28;20476;-83
2023/05/10 07:51:20;;;;;;;5.03;1.83;;;20.00;59.50;;;;;;5032480;28;21226;-85
2023/05/10 07:53:47;;;;;;;1.73;1.63;;;20.20;58.20;;;;;;5016833;28;20833;-85
2023/05/10 07:56:26;;;;;;;2.23;1.80;;;20.10;59.20;;;;;;5007831;28;20445;-82
2023/05/10 07:58:55;;;;;;;4.37;1.70;;;20.20;59.30;;;;;;5012612;28;21879;-82
2023/05/10 08:01:22;;;;;;;3.20;1.70;;;20.00;58.40;;;;;;5025380;28;20456;-84
2023/05/10 08:03:50;;;;;;;2.27;2.00;;;19.90;59.90;;;;;;4998185;28;20965;-84
2023/05/10 08:06:18;;;;;;;4.57;2.03;;;19.90;58.70;;;;;;5020731;28;20452;-83
2023/05/10 08:08:49;;;;;;;3.30;2.13;;;20.20;60.10;;;;;;5014984;28;20481;-83
2023/05/10 08:11:16;;;;;;;1.90;1.80;;;20.10;57.30;;;;;;5016950;28;20462;-83
2023/05/10 08:13:43;;;;;;;6.50;1.90;;;20.10;58.50;;;;;;5001881;28;20973;-84
2023/05/10 08:16:11;;;;;;;5.13;1.93;;;20.40;59.50;;;;;;5037876;28;20456;-83
2023/05/10 08:18:38;;;;;;;4.63;1.70;;;20.50;57.50;;;;;;5015325;28;21215;-82
2023/05/10 08:21:06;;;;;;;3.37;1.87;;;20.40;57.80;;;;;;5034864;28;20448;-84
2023/05/10 08:23:33;;;;;;;1.87;1.77;;;20.10;57.50;;;;;;5053828;28;20452;-83
2023/05/10 08:26:00;;;;;;;5.47;1.90;;;20.30;58.10;;;;;;5031639;28;20460;-83
2023/05/10 08:28:27;;;;;;;1.80;1.70;;;20.00;57.30;;;;;;5031214;28;20837;-85
2023/05/10 08:30:54;;;;;;;2.20;2.00;;;20.00;58.30;;;;;;5017419;28;20485;-83
2023/05/10 08:33:22;;;;;;;1.60;1.50;;;20.10;59.30;;;;;;5052895;28;20445;-84
2023/05/10 08:35:49;;;;;;;2.03;1.70;;;20.10;58.00;;;;;;5006392;28;20445;-81
2023/05/10 08:38:16;;;;;;;2.13;2.03;;;20.20;59.70;;;;;;5020492;28;20448;-82
2023/05/10 08:40:45;;;;;;;4.73;2.13;;;20.30;57.80;;;;;;5034396;28;20440;-84
2023/05/10 08:43:15;;;;;;;2.00;1.83;;;20.30;58.10;;;;;;5017963;28;20454;-84
2023/05/10 08:45:43;;;;;;;2.10;1.90;;;20.40;58.00;;;;;;5022650;28;21163;-83
2023/05/10 08:48:11;;;;;;;2.20;2.00;;;20.60;58.20;;;;;;5020211;28;20489;-82
2023/05/10 08:50:41;;;;;;;2.33;2.10;;;20.80;57.20;;;;;;5002247;28;20466;-84
2023/05/10 08:53:12;;;;;;;2.20;1.60;;;21.00;56.80;;;;;;5031917;28;20540;-83
2023/05/10 08:55:41;;;;;;;3.00;1.90;;;21.00;56.20;;;;;;5032552;28;20448;-83
2023/05/10 08:58:09;;;;;;;2.63;1.70;;;20.90;56.10;;;;;;5023701;28;21011;-82
2023/05/10 09:00:37;;;;;;;1.93;1.83;;;20.90;56.50;;;;;;5023022;28;20456;-84
2023/05/10 09:03:06;;;;;;;3.17;2.20;;;20.90;55.60;;;;;;5033145;28;20462;-82
2023/05/10 09:05:33;;;;;;;2.27;2.10;;;20.80;57.10;;;;;;4998806;28;20812;-83
2023/05/10 09:08:01;;;;;;;5.77;2.23;;;20.90;55.80;;;;;;5022058;28;20544;-84
2023/05/10 09:10:30;;;;;;;1.77;1.67;;;20.90;57.00;;;;;;5047947;28;20496;-85
2023/05/10 09:12:57;;;;;;;2.97;1.73;;;20.70;56.20;;;;;;5031067;28;20951;-84
2023/05/10 09:15:25;;;;;;;2.73;2.23;;;20.50;56.50;;;;;;5024066;28;20433;-83
2023/05/10 09:17:52;;;;;;;2.07;1.53;;;20.50;57.00;;;;;;5014487;28;20462;-82
2023/05/10 09:20:20;;;;;;;2.97;2.00;;;20.40;56.50;;;;;;5049157;28;20589;-83
2023/05/10 09:22:47;;;;;;;2.27;1.90;;;20.50;56.90;;;;;;5003587;28;20771;-82
2023/05/10 09:25:16;;;;;;;1.70;1.60;;;20.40;55.40;;;;;;5023769;28;20449;-84
2023/05/10 09:27:46;;;;;;;2.13;1.80;;;20.50;55.80;;;;;;5018823;28;20464;-83
2023/05/10 09:30:17;;;;;;;2.27;1.90;;;20.70;56.80;;;;;;5030070;28;20480;-85
2023/05/10 09:32:46;;;;;;;1.60;1.50;;;21.00;55.70;;;;;;5010488;28;20479;-84
2023/05/10 09:35:14;;;;;;;2.00;1.90;;;21.30;55.50;;;;;;5030685;28;20452;-84
2023/05/10 09:37:42;;;;;;;1.90;1.70;;;21.10;54.10;;;;;;5049528;28;20441;-83
2023/05/10 09:40:13;;;;;;;2.40;1.60;;;21.20;54.60;;;;;;5049025;28;20461;-83
2023/05/10 09:42:42;;;;;;;3.13;1.70;;;21.20;54.70;;;;;;5017525;28;20454;-83
2023/05/10 09:45:10;;;;;;;5.67;1.90;;;21.00;55.90;;;;;;5015055;28;20445;-84
2023/05/10 09:47:37;;;;;;;1.60;1.50;;;21.10;54.80;;;;;;5030467;28;20445;-84
2023/05/10 09:50:05;;;;;;;1.50;1.40;;;21.20;54.40;;;;;;5033296;28;20588;-85
2023/05/10 09:52:47;;;;;;;1.87;1.57;;;21.40;54.40;;;;;;5008868;28;20471;-83
2023/05/10 09:55:14;;;;;;;1.50;1.40;;;21.50;54.70;;;;;;5003763;28;20456;-83
2023/05/10 09:57:43;;;;;;;2.13;1.63;;;21.40;53.50;;;;;;5024765;28;20457;-84
2023/05/10 10:00:10;;;;;;;2.93;1.73;;;21.30;53.80;;;;;;5025450;28;20453;-85
2023/05/10 10:02:40;;;;;;;2.70;1.73;;;21.50;54.80;;;;;;5039476;28;20954;-84
2023/05/10 10:05:08;;;;;;;2.23;1.70;;;21.70;53.90;;;;;;5007986;28;20438;-84
2023/05/10 10:07:36;;;;;;;1.83;1.53;;;21.60;53.60;;;;;;5039924;28;20468;-85
2023/05/10 10:10:04;;;;;;;1.80;1.70;;;21.40;52.50;;;;;;5034397;28;20990;-82
2023/05/10 10:12:31;;;;;;;1.70;1.60;;;21.40;53.40;;;;;;5014469;28;20504;-83
2023/05/10 10:15:01;;;;;;;1.90;1.80;;;21.20;53.20;;;;;;5005555;28;20459;-83
2023/05/10 10:17:29;;;;;;;1.77;1.67;;;21.30;53.20;;;;;;5038594;28;20472;-84
2023/05/10 10:19:57;;;;;;;1.40;1.30;;;21.40;54.60;;;;;;5034869;28;20548;-84
2023/05/10 10:22:24;;;;;;;2.03;1.77;;;21.70;53.60;;;;;;5034213;28;21042;-85
2023/05/10 10:24:52;;;;;;;5.27;1.67;;;21.70;52.90;;;;;;5027594;28;20445;-82
2023/05/10 10:27:25;;;;;;;1.90;1.70;;;21.50;52.30;;;;;;5009682;28;20799;-85
2023/05/10 10:30:04;;;;;;;1.70;1.60;;;21.40;52.60;;;;;;5020280;28;21030;-84
2023/05/10 10:32:43;;;;;;;1.80;1.60;;;21.60;54.20;;;;;;5029166;28;20567;-83
2023/05/10 10:35:10;;;;;;;2.00;1.90;;;21.40;53.10;;;;;;5025004;28;21358;-82
2023/05/10 10:37:46;;;;;;;1.83;1.70;;;21.30;53.90;;;;;;5008427;28;20963;-84
2023/05/10 10:40:29;;;;;;;1.80;1.70;;;21.30;54.50;;;;;;5017819;28;20469;-84
2023/05/10 10:42:57;;;;;;;1.83;1.73;;;21.50;54.10;;;;;;5037291;28;20539;-85
2023/05/10 10:45:26;;;;;;;6.83;2.00;;;21.30;53.30;;;;;;5020522;28;20488;-81
2023/05/10 10:48:21;;;;;;;5.23;1.83;;;21.20;54.00;;;;;;5033040;28;20477;-84
2023/05/10 10:50:48;;;;;;;2.80;1.60;;;21.30;55.60;;;;;;5006573;28;20452;-84
2023/05/10 10:53:15;;;;;;;1.70;1.60;;;21.10;53.20;;;;;;5018691;28;20452;-85
2023/05/10 10:55:48;;;;;;;1.83;1.60;;;21.10;54.20;;;;;;5033730;28;20531;-84
2023/05/10 10:58:30;;;;;;;1.83;1.70;;;21.40;53.90;;;;;;5024861;28;20481;-84
2023/05/10 11:01:12;;;;;;;1.67;1.57;;;21.70;53.90;;;;;;5040386;28;20444;-84
2023/05/10 11:03:39;;;;;;;3.67;1.70;;;21.90;52.40;;;;;;5032330;28;20449;-82
2023/05/10 11:06:07;;;;;;;3.60;1.80;;;21.90;52.90;;;;;;5023323;28;20471;-83
2023/05/10 11:08:41;;;;;;;1.87;1.77;;;22.00;52.70;;;;;;5009097;28;20493;-84
2023/05/10 11:11:08;;;;;;;2.23;1.70;;;21.80;52.40;;;;;;5031370;28;20472;-83
2023/05/10 11:13:39;;;;;;;3.37;1.47;;;21.90;53.50;;;;;;5015893;28;20547;-83
2023/05/10 11:16:18;;;;;;;3.63;1.67;;;22.20;53.40;;;;;;5035130;28;20459;-84
2023/05/10 11:19:01;;;;;;;1.60;1.50;;;22.40;52.40;;;;;;5036284;28;21068;-84
2023/05/10 11:21:28;;;;;;;1.50;1.40;;;22.30;50.80;;;;;;5026278;28;21017;-84
2023/05/10 11:23:57;;;;;;;1.83;1.73;;;22.40;51.60;;;;;;5018030;28;20448;-84
2023/05/10 11:26:25;;;;;;;2.17;1.60;;;22.20;50.80;;;;;;5003898;28;20448;-85
2023/05/10 11:28:55;;;;;;;1.50;1.40;;;22.50;51.50;;;;;;5023908;28;20469;-81
2023/05/10 11:31:26;;;;;;;1.70;1.60;;;22.60;51.40;;;;;;5011096;28;20855;-83
2023/05/10 11:33:54;;;;;;;1.93;1.30;;;22.80;50.80;;;;;;5008171;28;20472;-82
2023/05/10 11:36:25;;;;;;;3.47;1.67;;;23.00;50.30;;;;;;5036427;28;20880;-84
2023/05/10 11:38:52;;;;;;;1.53;1.43;;;23.20;49.40;;;;;;5017913;28;21055;-85
2023/05/10 11:41:21;;;;;;;4.20;1.60;;;23.10;48.90;;;;;;5019584;28;20942;-84
2023/05/10 11:43:50;;;;;;;4.43;1.70;;;23.10;49.50;;;;;;5050679;28;20455;-84
2023/05/10 11:46:20;;;;;;;2.10;1.63;;;23.50;48.90;;;;;;5040615;28;20449;-85
2023/05/10 11:48:51;;;;;;;3.13;1.63;;;23.30;48.40;;;;;;5020669;28;20485;-85
2023/05/10 11:51:21;;;;;;;6.63;5.93;;;23.10;49.30;;;;;;5016929;28;21009;-84
2023/05/10 11:53:49;;;;;;;3.13;2.07;;;23.00;49.50;;;;;;5034188;28;20791;-83
2023/05/10 11:56:17;;;;;;;2.97;2.77;;;23.00;50.70;;;;;;5018276;28;21287;-85
2023/05/10 11:58:44;;;;;;;2.43;2.23;;;23.00;50.00;;;;;;5032798;28;20500;-83
2023/05/10 12:01:11;;;;;;;3.90;2.53;;;22.80;51.70;;;;;;5015991;28;20447;-83
2023/05/10 12:03:39;;;;;;;2.33;2.13;;;22.40;53.50;;;;;;5027733;28;20475;-83
2023/05/10 12:06:08;;;;;;;4.00;3.00;;;21.60;54.40;;;;;;5023716;28;20456;-83
2023/05/10 12:08:35;;;;;;;3.33;2.20;;;21.10;56.30;;;;;;5050955;28;20473;-86
2023/05/10 12:11:06;;;;;;;2.33;2.20;;;20.70;58.70;;;;;;5043230;28;20449;-86
2023/05/10 12:13:38;;;;;;;5.57;2.27;;;20.20;61.30;;;;;;5019658;28;20540;-86
2023/05/10 12:16:14;;;;;;;11.67;2.73;;;20.10;62.00;;;;;;5016640;28;20544;-83
2023/05/10 12:18:41;;;;;;;5.73;2.63;;;20.20;61.20;;;;;;5020949;28;20461;-85
2023/05/10 12:21:11;;;;;;;4.47;2.60;;;20.30;61.60;;;;;;5051863;28;20464;-85
2023/05/10 12:23:38;;;;;;;5.53;2.10;;;20.30;62.60;;;;;;5027277;28;20512;-84
2023/05/10 12:26:06;;;;;;;3.97;2.00;;;20.30;62.70;;;;;;5017122;28;20860;-84
2023/05/10 12:28:33;;;;;;;1.67;1.57;;;20.40;62.00;;;;;;5009027;28;20460;-84
2023/05/10 12:31:01;;;;;;;3.23;2.03;;;20.50;60.90;;;;;;4999839;28;20460;-84
2023/05/10 12:33:37;;;;;;;2.60;1.80;;;20.40;60.30;;;;;;5028074;28;20474;-84
2023/05/10 12:36:04;;;;;;;1.50;1.40;;;20.50;62.10;;;;;;5052334;28;20523;-86
2023/05/10 12:38:34;;;;;;;1.73;1.60;;;20.60;59.80;;;;;;5019932;28;20539;-84
2023/05/10 12:41:03;;;;;;;11.07;1.90;;;20.70;61.20;;;;;;5042124;28;20459;-84
2023/05/10 12:43:30;;;;;;;2.40;1.60;;;20.90;60.90;;;;;;5051192;28;20535;-84
2023/05/10 12:45:57;;;;;;;5.53;1.50;;;21.00;59.20;;;;;;5024737;28;20958;-83
2023/05/10 12:48:24;;;;;;;3.17;2.13;;;21.00;58.50;;;;;;5050022;28;20461;-85
2023/05/10 12:50:51;;;;;;;3.53;3.23;;;20.90;58.30;;;;;;5029458;28;20449;-82
2023/05/10 12:53:18;;;;;;;1.90;1.80;;;20.70;59.00;;;;;;5041631;28;20451;-85
2023/05/10 12:55:46;;;;;;;1.83;1.70;;;20.60;59.20;;;;;;5051188;28;20453;-84
2023/05/10 12:58:13;;;;;;;1.57;1.47;;;20.70;60.20;;;;;;5016624;28;20924;-82